METAR Data

Data at: 0637 UTC 28 Sep 2022

METAR for:KSFZ (Pawtucket/NC State A, RI, US)
Text:KSFZ 280556Z AUTO 26006KT 10SM BKN070 12/09 A2995 RMK AO2 SLP142 T01170094 10139 20100 51009 $
Temperature: 11.7°C ( 53°F)
Dewpoint: 9.4°C ( 49°F) [RH = 86%]
Pressure (altimeter):29.95 inches Hg (1014.3 mb) [Sea level pressure: 1014.2 mb]
Winds:from the W (260 degrees) at 7 MPH (6 knots; 3.1 m/s)
Visibility:10 or more sm (16+ km)
Ceiling:7000 feet AGL
Clouds: broken clouds at 7000 feet AGL
QC Flag:automated observation with no human augmentation; SOME DATA ABOVE MAY BE INACCURATE!!!"$" is an indication the sensor requires maintenance.